Time;durP1;ratioP1;P1;durP2;ratioP2;P2;SDS_P1;SDS_P2;PMS_P1;PMS_P2;Temp;Humidity;BMP_temperature;BMP_pressure;BME280_temperature;BME280_humidity;BME280_pressure;Samples;Min_cycle;Max_cycle;Signal;HPM_P1;HPM_P2
2023/06/10 00:01:46;;;;;;;6.93;3.40;;;;;;;;;;5095272;28;20125;-66
2023/06/10 00:04:14;;;;;;;7.60;3.42;;;;;;;;;;5105909;28;20051;-66
2023/06/10 00:06:41;;;;;;;7.32;3.58;;;;;;;;;;5106792;28;20155;-66
2023/06/10 00:09:10;;;;;;;5.30;3.13;;;;;;;;;;5110277;28;20051;-66
2023/06/10 00:11:39;;;;;;;7.68;3.28;;;;;;;;;;5109531;28;20513;-66
2023/06/10 00:14:06;;;;;;;6.40;3.38;;;;;;;;;;5103260;28;20070;-66
2023/06/10 00:16:33;;;;;;;6.93;3.78;;;;;;;;;;5104256;28;20056;-66
2023/06/10 00:19:01;;;;;;;5.53;3.45;;;;;;;;;;5106868;27;20410;-66
2023/06/10 00:21:28;;;;;;;5.00;3.20;;;;;;;;;;5090079;28;20063;-65
2023/06/10 00:23:56;;;;;;;7.60;3.30;;;;;;;;;;5107693;28;20414;-66
2023/06/10 00:26:23;;;;;;;5.57;3.45;;;;;;;;;;5108070;27;20078;-65
2023/06/10 00:28:52;;;;;;;5.80;2.90;;;;;;;;;;5107962;27;20491;-66
2023/06/10 00:31:19;;;;;;;8.23;3.20;;;;;;;;;;5102818;28;20379;-66
2023/06/10 00:33:46;;;;;;;4.60;3.17;;;;;;;;;;5107115;28;20055;-65
2023/06/10 00:36:14;;;;;;;6.28;3.15;;;;;;;;;;5108256;28;20482;-66
2023/06/10 00:38:41;;;;;;;7.25;3.30;;;;;;;;;;5100913;28;20420;-65
2023/06/10 00:41:08;;;;;;;4.32;3.08;;;;;;;;;;5108584;28;20414;-66
2023/06/10 00:43:35;;;;;;;6.82;3.30;;;;;;;;;;5107484;28;20047;-66
2023/06/10 00:46:04;;;;;;;5.65;3.38;;;;;;;;;;5109844;28;20475;-66
2023/06/10 00:48:32;;;;;;;6.65;3.35;;;;;;;;;;5106182;28;20052;-65
2023/06/10 00:50:59;;;;;;;7.13;3.15;;;;;;;;;;5091858;28;20055;-66
2023/06/10 00:53:27;;;;;;;4.47;3.10;;;;;;;;;;5109943;28;20085;-65
2023/06/10 00:55:54;;;;;;;5.20;3.40;;;;;;;;;;5108434;28;20380;-65
2023/06/10 00:58:22;;;;;;;6.38;3.20;;;;;;;;;;5102942;28;20051;-65
2023/06/10 01:00:51;;;;;;;4.57;3.15;;;;;;;;;;5111039;28;20130;-65
2023/06/10 01:03:20;;;;;;;6.03;3.15;;;;;;;;;;5104510;28;20130;-66
2023/06/10 01:05:51;;;;;;;6.72;3.10;;;;;;;;;;5101168;27;20048;-65
2023/06/10 01:08:23;;;;;;;5.38;3.58;;;;;;;;;;5103256;28;20043;-66
2023/06/10 01:10:53;;;;;;;5.25;3.17;;;;;;;;;;5102624;28;20640;-66
2023/06/10 01:13:23;;;;;;;5.75;3.60;;;;;;;;;;5106681;28;20126;-66
2023/06/10 01:15:51;;;;;;;7.05;3.22;;;;;;;;;;5107638;28;20051;-67
2023/06/10 01:18:21;;;;;;;5.85;3.33;;;;;;;;;;5108721;28;20047;-66
2023/06/10 01:20:48;;;;;;;4.85;3.20;;;;;;;;;;5103494;28;20055;-65
2023/06/10 01:23:17;;;;;;;7.07;3.85;;;;;;;;;;5090227;28;20039;-65
2023/06/10 01:25:47;;;;;;;6.03;3.08;;;;;;;;;;5084400;28;20077;-65
2023/06/10 01:28:16;;;;;;;5.72;3.35;;;;;;;;;;5107245;28;20048;-65
2023/06/10 01:30:47;;;;;;;8.05;3.42;;;;;;;;;;5087686;28;20082;-65
2023/06/10 01:33:15;;;;;;;7.68;3.30;;;;;;;;;;5088286;28;20071;-66
2023/06/10 01:35:45;;;;;;;7.00;3.28;;;;;;;;;;5106846;28;20403;-65
2023/06/10 01:38:13;;;;;;;6.72;3.47;;;;;;;;;;5109426;28;20109;-65
2023/06/10 01:40:42;;;;;;;5.35;3.13;;;;;;;;;;5105364;28;20479;-65
2023/06/10 01:43:10;;;;;;;6.53;2.88;;;;;;;;;;5087258;28;20047;-65
2023/06/10 01:45:37;;;;;;;5.53;3.25;;;;;;;;;;5108697;28;20047;-66
2023/06/10 01:48:04;;;;;;;5.40;3.42;;;;;;;;;;5108044;28;20478;-65
2023/06/10 01:50:31;;;;;;;5.28;3.33;;;;;;;;;;5093195;28;20131;-65
2023/06/10 01:52:59;;;;;;;6.13;3.47;;;;;;;;;;5107336;28;20047;-65
2023/06/10 01:55:26;;;;;;;6.53;3.40;;;;;;;;;;5109803;28;20047;-65
2023/06/10 01:57:54;;;;;;;5.85;3.38;;;;;;;;;;5109307;28;20055;-65
2023/06/10 02:00:22;;;;;;;7.53;3.33;;;;;;;;;;5110018;28;20060;-65
2023/06/10 02:02:49;;;;;;;6.70;3.58;;;;;;;;;;5109028;28;20495;-65
2023/06/10 02:05:16;;;;;;;6.57;3.47;;;;;;;;;;5102219;28;20059;-66
2023/06/10 02:07:44;;;;;;;7.50;3.15;;;;;;;;;;5081591;28;20059;-66
2023/06/10 02:10:11;;;;;;;6.38;3.47;;;;;;;;;;5113104;28;20044;-65
2023/06/10 02:12:38;;;;;;;5.65;3.20;;;;;;;;;;5109035;28;20051;-65
2023/06/10 02:15:07;;;;;;;8.80;3.50;;;;;;;;;;5093846;28;20113;-65
2023/06/10 02:17:34;;;;;;;7.85;3.53;;;;;;;;;;5106343;27;20050;-65
2023/06/10 02:20:06;;;;;;;7.45;3.30;;;;;;;;;;5107614;28;20453;-66
2023/06/10 02:22:34;;;;;;;7.23;3.50;;;;;;;;;;5090958;28;20052;-65
2023/06/10 02:25:01;;;;;;;4.32;3.10;;;;;;;;;;5112301;28;20096;-65
2023/06/10 02:27:29;;;;;;;8.18;3.60;;;;;;;;;;5106326;28;20043;-65
2023/06/10 02:29:56;;;;;;;8.80;3.80;;;;;;;;;;5109308;28;20772;-65
2023/06/10 02:32:25;;;;;;;6.10;3.38;;;;;;;;;;5108670;28;20048;-65
2023/06/10 02:34:53;;;;;;;9.05;4.07;;;;;;;;;;5114043;28;20093;-65
2023/06/10 02:37:20;;;;;;;5.35;3.30;;;;;;;;;;5109431;27;20078;-65
2023/06/10 02:39:47;;;;;;;7.10;3.42;;;;;;;;;;5112910;28;20048;-65
2023/06/10 02:42:14;;;;;;;5.43;3.28;;;;;;;;;;5109639;28;20036;-65
2023/06/10 02:44:42;;;;;;;7.63;3.17;;;;;;;;;;5086013;28;20063;-65
2023/06/10 02:47:09;;;;;;;8.45;3.80;;;;;;;;;;5101316;27;20048;-65
2023/06/10 02:49:38;;;;;;;6.47;3.50;;;;;;;;;;5110633;28;20051;-66
2023/06/10 02:52:06;;;;;;;5.35;3.15;;;;;;;;;;5108535;28;20051;-65
2023/06/10 02:54:35;;;;;;;6.40;3.50;;;;;;;;;;5112797;28;20047;-65
2023/06/10 02:57:03;;;;;;;5.97;3.20;;;;;;;;;;5103764;28;20097;-65
2023/06/10 02:59:30;;;;;;;4.60;2.95;;;;;;;;;;5088585;28;20050;-66
2023/06/10 03:01:57;;;;;;;6.43;3.28;;;;;;;;;;5106404;28;20072;-66
2023/06/10 03:04:25;;;;;;;5.57;3.75;;;;;;;;;;5106272;28;20044;-65
2023/06/10 03:06:54;;;;;;;10.43;3.70;;;;;;;;;;5110161;28;20052;-66
2023/06/10 03:09:21;;;;;;;8.93;4.03;;;;;;;;;;5112423;28;20063;-65
2023/06/10 03:11:48;;;;;;;5.97;3.55;;;;;;;;;;5086680;28;20055;-66
2023/06/10 03:14:15;;;;;;;5.45;3.38;;;;;;;;;;5107404;28;20039;-65
2023/06/10 03:16:43;;;;;;;6.13;3.17;;;;;;;;;;5098300;28;20055;-65
2023/06/10 03:19:10;;;;;;;7.60;3.75;;;;;;;;;;5097975;28;20058;-66
2023/06/10 03:21:38;;;;;;;8.30;3.97;;;;;;;;;;5106169;28;20043;-65
2023/06/10 03:24:07;;;;;;;7.63;3.78;;;;;;;;;;5107799;28;20050;-65
2023/06/10 03:26:34;;;;;;;7.15;3.30;;;;;;;;;;5089190;28;20129;-65
2023/06/10 03:29:01;;;;;;;6.28;3.35;;;;;;;;;;5102339;28;20035;-65
2023/06/10 03:31:29;;;;;;;5.30;3.13;;;;;;;;;;5111576;28;20039;-65
2023/06/10 03:33:58;;;;;;;7.65;3.22;;;;;;;;;;5110310;27;20055;-65
2023/06/10 03:36:28;;;;;;;5.35;3.40;;;;;;;;;;5107947;28;20056;-65
2023/06/10 03:38:56;;;;;;;7.22;3.08;;;;;;;;;;5105481;28;20091;-66
2023/06/10 03:41:25;;;;;;;6.22;3.22;;;;;;;;;;5099385;28;20055;-66
2023/06/10 03:43:52;;;;;;;7.15;3.55;;;;;;;;;;5111190;28;20047;-66
2023/06/10 03:46:20;;;;;;;6.28;3.50;;;;;;;;;;5101506;28;20051;-66
2023/06/10 03:48:48;;;;;;;4.85;2.90;;;;;;;;;;5094362;28;20624;-65
2023/06/10 03:51:15;;;;;;;5.00;2.60;;;;;;;;;;5109949;28;20048;-66
2023/06/10 03:53:42;;;;;;;9.63;3.00;;;;;;;;;;5086355;28;20435;-65
2023/06/10 03:56:10;;;;;;;4.63;2.67;;;;;;;;;;5111221;27;20043;-66
2023/06/10 03:58:38;;;;;;;6.57;2.80;;;;;;;;;;5105526;28;20407;-65
2023/06/10 04:01:07;;;;;;;4.70;3.00;;;;;;;;;;5083027;28;20055;-65
2023/06/10 04:03:34;;;;;;;5.53;2.97;;;;;;;;;;5104695;28;20044;-65
2023/06/10 04:06:02;;;;;;;5.93;2.97;;;;;;;;;;5099199;27;20398;-65
2023/06/10 04:08:31;;;;;;;6.82;2.78;;;;;;;;;;5112908;28;20486;-65
2023/06/10 04:10:58;;;;;;;5.93;2.95;;;;;;;;;;5103482;28;20052;-65
2023/06/10 04:13:26;;;;;;;5.45;2.95;;;;;;;;;;5105610;28;20047;-65
2023/06/10 04:15:55;;;;;;;4.85;2.88;;;;;;;;;;5109806;28;20052;-65
2023/06/10 04:18:22;;;;;;;8.18;2.90;;;;;;;;;;5111319;28;20124;-65
2023/06/10 04:20:49;;;;;;;5.10;2.78;;;;;;;;;;5107946;28;20157;-65
2023/06/10 04:23:17;;;;;;;4.53;2.75;;;;;;;;;;5100854;28;20438;-65
2023/06/10 04:25:44;;;;;;;4.90;2.35;;;;;;;;;;5100744;28;20101;-65
2023/06/10 04:28:11;;;;;;;6.05;3.15;;;;;;;;;;5110314;28;20070;-65
2023/06/10 04:30:38;;;;;;;4.47;2.55;;;;;;;;;;5107547;27;20055;-65
2023/06/10 04:33:09;;;;;;;4.28;2.50;;;;;;;;;;5110560;28;20052;-65
2023/06/10 04:35:36;;;;;;;4.88;2.75;;;;;;;;;;5104602;28;20083;-65
2023/06/10 04:38:03;;;;;;;5.40;2.72;;;;;;;;;;5098892;28;20059;-65
2023/06/10 04:40:30;;;;;;;5.57;2.70;;;;;;;;;;5096816;28;20097;-65
2023/06/10 04:42:58;;;;;;;7.53;3.20;;;;;;;;;;5105344;28;20050;-66
2023/06/10 04:45:25;;;;;;;4.75;2.53;;;;;;;;;;5108505;28;20048;-65
2023/06/10 04:47:55;;;;;;;4.50;2.70;;;;;;;;;;5120061;27;20039;-65
2023/06/10 04:50:23;;;;;;;6.65;2.80;;;;;;;;;;5110631;28;20043;-65
2023/06/10 04:52:51;;;;;;;7.03;2.92;;;;;;;;;;5109359;28;20052;-65
2023/06/10 04:55:18;;;;;;;6.03;2.97;;;;;;;;;;5111114;28;20092;-65
2023/06/10 04:57:45;;;;;;;5.93;3.08;;;;;;;;;;5109948;28;20070;-65
2023/06/10 05:00:14;;;;;;;7.15;3.00;;;;;;;;;;5107476;28;20044;-65
2023/06/10 05:02:41;;;;;;;7.65;3.05;;;;;;;;;;5109694;28;20622;-65
2023/06/10 05:05:08;;;;;;;5.07;3.00;;;;;;;;;;5098032;28;20494;-65
2023/06/10 05:07:37;;;;;;;6.00;2.75;;;;;;;;;;5107447;28;20047;-65
2023/06/10 05:10:05;;;;;;;5.78;3.10;;;;;;;;;;5110093;28;20280;-65
2023/06/10 05:12:32;;;;;;;5.47;2.70;;;;;;;;;;5098587;28;20062;-65
2023/06/10 05:14:59;;;;;;;5.72;2.97;;;;;;;;;;5104531;28;20648;-65
2023/06/10 05:17:27;;;;;;;6.43;3.13;;;;;;;;;;5090853;28;20058;-65
2023/06/10 05:19:55;;;;;;;6.57;2.95;;;;;;;;;;5096322;27;20098;-65
2023/06/10 05:22:23;;;;;;;4.63;2.90;;;;;;;;;;5107123;27;20449;-65
2023/06/10 05:24:52;;;;;;;8.75;3.15;;;;;;;;;;5110029;28;20075;-65
2023/06/10 05:27:19;;;;;;;4.63;2.63;;;;;;;;;;5082220;28;20052;-65
2023/06/10 05:29:47;;;;;;;6.32;2.97;;;;;;;;;;5107259;28;20066;-65
2023/06/10 05:32:14;;;;;;;7.05;2.63;;;;;;;;;;5104926;28;20391;-65
2023/06/10 05:34:41;;;;;;;7.05;3.33;;;;;;;;;;5104191;28;20475;-65
2023/06/10 05:37:08;;;;;;;5.78;3.10;;;;;;;;;;5108072;28;20047;-65
2023/06/10 05:39:38;;;;;;;6.75;2.90;;;;;;;;;;5110480;28;20051;-65
2023/06/10 05:42:08;;;;;;;5.70;2.80;;;;;;;;;;5090962;28;20050;-65
2023/06/10 05:44:35;;;;;;;5.43;3.05;;;;;;;;;;5096919;28;20042;-65
2023/06/10 05:47:02;;;;;;;7.30;2.80;;;;;;;;;;5105291;28;20053;-65
2023/06/10 05:49:30;;;;;;;5.50;2.90;;;;;;;;;;5109242;28;20402;-65
2023/06/10 05:51:58;;;;;;;5.07;2.60;;;;;;;;;;5106880;28;20047;-66
2023/06/10 05:54:26;;;;;;;9.85;3.30;;;;;;;;;;5109340;28;20129;-66
2023/06/10 05:56:53;;;;;;;5.18;3.00;;;;;;;;;;5088682;28;20065;-65
2023/06/10 05:59:22;;;;;;;5.95;3.08;;;;;;;;;;5109343;28;20050;-65
2023/06/10 06:01:50;;;;;;;6.13;2.83;;;;;;;;;;5106833;28;20060;-65
2023/06/10 06:04:17;;;;;;;6.15;3.10;;;;;;;;;;5105698;28;20212;-65
2023/06/10 06:06:45;;;;;;;7.03;2.88;;;;;;;;;;5108995;28;20051;-65
2023/06/10 06:09:12;;;;;;;6.18;2.80;;;;;;;;;;5098369;28;20142;-66
2023/06/10 06:11:39;;;;;;;9.18;3.47;;;;;;;;;;5103350;28;20054;-65
2023/06/10 06:14:07;;;;;;;6.13;3.03;;;;;;;;;;5090893;28;20052;-65
2023/06/10 06:16:35;;;;;;;6.82;2.78;;;;;;;;;;5106290;28;20380;-65
2023/06/10 06:19:02;;;;;;;6.72;3.05;;;;;;;;;;5104878;28;20523;-65
2023/06/10 06:21:30;;;;;;;6.93;3.00;;;;;;;;;;5105192;28;20055;-66
2023/06/10 06:23:57;;;;;;;5.43;2.80;;;;;;;;;;5103556;28;20127;-66
2023/06/10 06:26:25;;;;;;;4.30;2.67;;;;;;;;;;5110048;28;20085;-65
2023/06/10 06:28:53;;;;;;;5.18;2.90;;;;;;;;;;5100991;28;20089;-66
2023/06/10 06:31:20;;;;;;;6.10;2.80;;;;;;;;;;5106887;28;20104;-66
2023/06/10 06:33:48;;;;;;;4.55;2.80;;;;;;;;;;5104808;28;20479;-65
2023/06/10 06:36:16;;;;;;;7.18;2.72;;;;;;;;;;5102447;28;20047;-66
2023/06/10 06:38:43;;;;;;;4.68;2.53;;;;;;;;;;5106952;28;20047;-65
2023/06/10 06:41:10;;;;;;;6.15;2.72;;;;;;;;;;5099561;28;20055;-66
2023/06/10 06:43:37;;;;;;;4.72;2.67;;;;;;;;;;5104170;28;20146;-66
2023/06/10 06:46:05;;;;;;;6.75;2.97;;;;;;;;;;5080984;28;20499;-66
2023/06/10 06:48:32;;;;;;;6.35;2.88;;;;;;;;;;5101539;28;20051;-66
2023/06/10 06:51:00;;;;;;;4.85;2.70;;;;;;;;;;5096031;28;20044;-66
2023/06/10 06:53:27;;;;;;;5.28;2.92;;;;;;;;;;5111674;28;20047;-66
2023/06/10 06:55:55;;;;;;;6.95;2.88;;;;;;;;;;5112153;28;20051;-66
2023/06/10 06:58:22;;;;;;;4.75;2.45;;;;;;;;;;5109545;28;20058;-66
2023/06/10 07:00:50;;;;;;;7.88;2.90;;;;;;;;;;5109025;27;20840;-66
2023/06/10 07:03:17;;;;;;;6.65;2.78;;;;;;;;;;5096115;28;20051;-66
2023/06/10 07:05:44;;;;;;;6.18;2.70;;;;;;;;;;5109397;27;20039;-66
2023/06/10 07:08:13;;;;;;;7.28;3.25;;;;;;;;;;5110611;28;20047;-66
2023/06/10 07:10:40;;;;;;;5.82;2.45;;;;;;;;;;5110597;27;20047;-66
2023/06/10 07:13:07;;;;;;;4.78;2.42;;;;;;;;;;5112092;28;20048;-66
2023/06/10 07:15:35;;;;;;;8.43;2.78;;;;;;;;;;5111278;28;20483;-66
2023/06/10 07:18:02;;;;;;;5.00;2.75;;;;;;;;;;5094912;28;20144;-66
2023/06/10 07:20:29;;;;;;;6.80;2.70;;;;;;;;;;5111316;28;20047;-66
2023/06/10 07:22:56;;;;;;;7.18;3.20;;;;;;;;;;5109645;28;20055;-66
2023/06/10 07:25:25;;;;;;;5.38;2.67;;;;;;;;;;5111635;28;20051;-65
2023/06/10 07:27:52;;;;;;;4.82;2.88;;;;;;;;;;5109388;28;20052;-66
2023/06/10 07:30:19;;;;;;;4.32;2.50;;;;;;;;;;5109733;28;20390;-66
2023/06/10 07:32:47;;;;;;;5.30;2.55;;;;;;;;;;5110747;27;20058;-66
2023/06/10 07:35:15;;;;;;;6.85;3.58;;;;;;;;;;5107434;28;20044;-66
2023/06/10 07:37:43;;;;;;;5.82;2.75;;;;;;;;;;5110380;28;20059;-66
2023/06/10 07:40:10;;;;;;;4.85;2.65;;;;;;;;;;5109559;28;20135;-66
2023/06/10 07:42:39;;;;;;;4.95;2.58;;;;;;;;;;5095661;28;20056;-66
2023/06/10 07:45:07;;;;;;;5.88;2.90;;;;;;;;;;5108013;28;20987;-66
2023/06/10 07:47:35;;;;;;;6.53;2.95;;;;;;;;;;5109618;27;20043;-66
2023/06/10 07:50:02;;;;;;;4.97;2.47;;;;;;;;;;5105128;27;20048;-66
2023/06/10 07:52:31;;;;;;;4.13;2.85;;;;;;;;;;5108704;28;20047;-66
2023/06/10 07:54:58;;;;;;;5.78;2.90;;;;;;;;;;5109034;27;20047;-66
2023/06/10 07:57:25;;;;;;;4.47;2.45;;;;;;;;;;5110561;28;20043;-66
2023/06/10 07:59:54;;;;;;;5.05;2.40;;;;;;;;;;5108694;27;20473;-66
2023/06/10 08:02:22;;;;;;;4.72;2.22;;;;;;;;;;5105119;28;20499;-66
2023/06/10 08:04:49;;;;;;;4.35;2.08;;;;;;;;;;5108087;28;20051;-66
2023/06/10 08:07:17;;;;;;;4.75;2.33;;;;;;;;;;5103671;28;20492;-66
2023/06/10 08:09:45;;;;;;;3.85;2.08;;;;;;;;;;5108581;28;20048;-66
2023/06/10 08:12:12;;;;;;;6.63;2.70;;;;;;;;;;5101100;28;20044;-66
2023/06/10 08:14:39;;;;;;;5.22;2.70;;;;;;;;;;5111927;28;20074;-66
2023/06/10 08:17:08;;;;;;;4.65;2.20;;;;;;;;;;5104937;27;20084;-66
2023/06/10 08:19:35;;;;;;;4.88;2.13;;;;;;;;;;5092090;28;20052;-66
2023/06/10 08:22:02;;;;;;;3.85;2.10;;;;;;;;;;5108326;28;20043;-66
2023/06/10 08:24:30;;;;;;;15.38;2.58;;;;;;;;;;5109611;28;20672;-66
2023/06/10 08:26:57;;;;;;;7.60;2.03;;;;;;;;;;5109783;28;20050;-66
2023/06/10 08:29:24;;;;;;;3.08;1.92;;;;;;;;;;5104848;28;20051;-66
2023/06/10 08:31:52;;;;;;;5.07;2.88;;;;;;;;;;5084444;28;20048;-66
2023/06/10 08:34:20;;;;;;;3.90;2.35;;;;;;;;;;5112368;27;20058;-66
2023/06/10 08:36:52;;;;;;;7.40;2.88;;;;;;;;;;5107302;27;20504;-66
2023/06/10 08:39:20;;;;;;;6.53;2.95;;;;;;;;;;5108562;28;20070;-66
2023/06/10 08:41:51;;;;;;;8.30;2.55;;;;;;;;;;5108480;28;20051;-66
2023/06/10 08:44:19;;;;;;;6.43;2.85;;;;;;;;;;5107084;28;20044;-66
2023/06/10 08:46:47;;;;;;;4.55;2.50;;;;;;;;;;5111856;27;20071;-67
2023/06/10 08:49:18;;;;;;;4.93;2.50;;;;;;;;;;5110814;27;20075;-66
2023/06/10 08:51:46;;;;;;;3.35;2.22;;;;;;;;;;5106766;28;20048;-66
2023/06/10 08:54:19;;;;;;;3.58;2.20;;;;;;;;;;5104290;28;20559;-67
2023/06/10 08:56:49;;;;;;;4.32;2.53;;;;;;;;;;5109059;28;20479;-66
2023/06/10 08:59:17;;;;;;;3.80;2.30;;;;;;;;;;5109943;28;20414;-66
2023/06/10 09:01:44;;;;;;;3.35;2.40;;;;;;;;;;5109067;28;20040;-66
2023/06/10 09:04:12;;;;;;;4.00;2.30;;;;;;;;;;5094475;28;20538;-66
2023/06/10 09:06:40;;;;;;;3.80;2.22;;;;;;;;;;5109591;28;20039;-66
2023/06/10 09:09:08;;;;;;;4.32;2.42;;;;;;;;;;5108981;28;20039;-66
2023/06/10 09:11:36;;;;;;;6.13;2.80;;;;;;;;;;5108316;28;20355;-66
2023/06/10 09:14:03;;;;;;;7.68;2.47;;;;;;;;;;5102852;28;20044;-66
2023/06/10 09:16:30;;;;;;;6.28;2.45;;;;;;;;;;5086077;28;20148;-67
2023/06/10 09:18:58;;;;;;;3.97;2.38;;;;;;;;;;5105535;28;20044;-67
2023/06/10 09:21:26;;;;;;;3.63;2.10;;;;;;;;;;5107939;28;20124;-67
2023/06/10 09:23:53;;;;;;;3.38;2.25;;;;;;;;;;5093238;28;20086;-67
2023/06/10 09:26:29;;;;;;;5.40;2.28;;;;;;;;;;5101685;28;20048;-67
2023/06/10 09:28:59;;;;;;;5.38;2.75;;;;;;;;;;5085906;28;20055;-67
2023/06/10 09:31:26;;;;;;;3.83;2.47;;;;;;;;;;5088995;28;20512;-67
2023/06/10 09:33:53;;;;;;;3.20;2.20;;;;;;;;;;5101916;28;20487;-67
2023/06/10 09:36:24;;;;;;;5.25;2.38;;;;;;;;;;5102115;28;20048;-67
2023/06/10 09:38:51;;;;;;;4.57;2.28;;;;;;;;;;5105770;28;20066;-67
2023/06/10 09:41:19;;;;;;;2.58;1.88;;;;;;;;;;5105084;28;20078;-67
2023/06/10 09:43:49;;;;;;;7.18;2.72;;;;;;;;;;5106689;28;20058;-67
2023/06/10 09:46:17;;;;;;;4.07;2.20;;;;;;;;;;5085783;28;20475;-67
2023/06/10 09:48:45;;;;;;;4.75;2.55;;;;;;;;;;5106535;28;20046;-67
2023/06/10 09:51:12;;;;;;;3.92;2.40;;;;;;;;;;5104838;28;20055;-67
2023/06/10 09:53:39;;;;;;;5.97;2.10;;;;;;;;;;5108040;28;20115;-67
2023/06/10 09:56:07;;;;;;;3.10;2.17;;;;;;;;;;5107687;28;20096;-67
2023/06/10 09:58:38;;;;;;;5.60;2.20;;;;;;;;;;5090478;28;20048;-67
2023/06/10 10:01:12;;;;;;;3.67;2.10;;;;;;;;;;5105779;28;20066;-67
2023/06/10 10:03:47;;;;;;;3.97;2.03;;;;;;;;;;5100912;28;20505;-68
2023/06/10 10:06:14;;;;;;;4.50;2.10;;;;;;;;;;5105254;28;20051;-68
2023/06/10 10:08:41;;;;;;;5.72;2.10;;;;;;;;;;5101126;28;20052;-67
2023/06/10 10:11:09;;;;;;;3.28;1.90;;;;;;;;;;5100574;28;20047;-68
2023/06/10 10:13:36;;;;;;;4.80;2.10;;;;;;;;;;5103208;28;20079;-68
2023/06/10 10:16:06;;;;;;;3.90;2.25;;;;;;;;;;5102285;28;20162;-67
2023/06/10 10:18:37;;;;;;;3.78;1.98;;;;;;;;;;5108018;28;20419;-68
2023/06/10 10:21:06;;;;;;;3.85;2.20;;;;;;;;;;5107644;28;20066;-68
2023/06/10 10:23:36;;;;;;;3.55;1.92;;;;;;;;;;5110059;28;20075;-68
2023/06/10 10:26:06;;;;;;;3.47;2.17;;;;;;;;;;5102999;28;20513;-68
2023/06/10 10:28:39;;;;;;;3.00;1.67;;;;;;;;;;5103822;28;20062;-68
2023/06/10 10:31:10;;;;;;;3.55;1.73;;;;;;;;;;5101992;28;20518;-68
2023/06/10 10:33:44;;;;;;;4.25;2.25;;;;;;;;;;5111361;28;20117;-68
2023/06/10 10:36:11;;;;;;;3.88;2.38;;;;;;;;;;5113030;28;20409;-68
2023/06/10 10:38:38;;;;;;;6.03;2.05;;;;;;;;;;5107714;28;20494;-68
2023/06/10 10:41:06;;;;;;;3.67;1.98;;;;;;;;;;5112890;28;20052;-68
2023/06/10 10:43:34;;;;;;;6.18;2.35;;;;;;;;;;5109419;28;20047;-68
2023/06/10 10:46:01;;;;;;;5.80;2.03;;;;;;;;;;5108729;28;20043;-68
2023/06/10 10:48:35;;;;;;;4.60;1.85;;;;;;;;;;5085096;28;20051;-68
2023/06/10 10:51:03;;;;;;;5.57;2.15;;;;;;;;;;5112849;28;20052;-68
2023/06/10 10:53:31;;;;;;;6.43;2.17;;;;;;;;;;5110392;28;20414;-68
2023/06/10 10:56:01;;;;;;;2.72;1.90;;;;;;;;;;5109693;28;20079;-68
2023/06/10 10:58:29;;;;;;;5.18;2.10;;;;;;;;;;5099227;27;20044;-68
2023/06/10 11:00:56;;;;;;;4.68;2.05;;;;;;;;;;5087308;28;20074;-69
2023/06/10 11:03:24;;;;;;;3.90;2.15;;;;;;;;;;5100506;28;20047;-68
2023/06/10 11:05:51;;;;;;;5.32;1.90;;;;;;;;;;5095486;28;20047;-68
2023/06/10 11:08:46;;;;;;;3.47;2.05;;;;;;;;;;5085067;28;20070;-69
2023/06/10 11:11:21;;;;;;;3.85;2.08;;;;;;;;;;5111225;28;20122;-68
2023/06/10 11:14:00;;;;;;;4.10;2.40;;;;;;;;;;5100509;28;20052;-68
2023/06/10 11:16:29;;;;;;;4.97;2.45;;;;;;;;;;5109452;28;20083;-69
2023/06/10 11:18:56;;;;;;;6.50;2.25;;;;;;;;;;5111849;28;20050;-69
2023/06/10 11:21:25;;;;;;;5.18;2.15;;;;;;;;;;5106109;28;20047;-69
2023/06/10 11:23:54;;;;;;;4.45;2.20;;;;;;;;;;5103453;28;20047;-69
2023/06/10 11:26:26;;;;;;;4.88;2.45;;;;;;;;;;5102803;28;20039;-69
2023/06/10 11:28:53;;;;;;;;;;;;;;;;;;5110257;28;20555;-70
2023/06/10 11:31:21;;;;;;;4.60;2.40;;;;;;;;;;5109759;28;19920;-69
2023/06/10 11:33:48;;;;;;;3.45;2.35;;;;;;;;;;5110766;28;20100;-69
2023/06/10 11:36:15;;;;;;;4.50;2.40;;;;;;;;;;5112260;28;20113;-68
2023/06/10 11:38:44;;;;;;;4.53;2.22;;;;;;;;;;5106794;28;20048;-68
2023/06/10 11:41:12;;;;;;;3.55;2.53;;;;;;;;;;5110373;28;20063;-69
2023/06/10 11:43:42;;;;;;;5.90;2.70;;;;;;;;;;5109578;28;20043;-69
2023/06/10 11:46:09;;;;;;;3.83;2.70;;;;;;;;;;5108826;28;20051;-69
2023/06/10 11:48:37;;;;;;;6.60;2.55;;;;;;;;;;5109975;27;20052;-69
2023/06/10 11:51:07;;;;;;;6.28;2.92;;;;;;;;;;5109886;28;20044;-69
2023/06/10 11:53:34;;;;;;;3.47;2.60;;;;;;;;;;5110948;27;20075;-69
2023/06/10 11:56:01;;;;;;;4.70;2.85;;;;;;;;;;5089019;28;20093;-69
2023/06/10 11:58:30;;;;;;;9.60;2.97;;;;;;;;;;5111458;27;20044;-69
2023/06/10 12:00:57;;;;;;;3.88;2.47;;;;;;;;;;5109550;28;20039;-68
2023/06/10 12:03:25;;;;;;;3.25;2.30;;;;;;;;;;5110360;27;20173;-68
2023/06/10 12:05:59;;;;;;;5.97;2.60;;;;;;;;;;5091181;28;20048;-69
2023/06/10 12:08:27;;;;;;;3.47;2.40;;;;;;;;;;5109835;28;20482;-68
2023/06/10 12:10:54;;;;;;;5.45;3.00;;;;;;;;;;5109534;28;20078;-68
2023/06/10 12:13:22;;;;;;;3.85;2.60;;;;;;;;;;5110882;28;20762;-69
2023/06/10 12:15:51;;;;;;;6.85;3.28;;;;;;;;;;5093912;28;20048;-68
2023/06/10 12:18:19;;;;;;;8.07;3.33;;;;;;;;;;5109567;28;20050;-68
2023/06/10 12:20:46;;;;;;;6.45;3.20;;;;;;;;;;5108110;28;20047;-68
2023/06/10 12:23:14;;;;;;;4.95;2.80;;;;;;;;;;5111036;28;20040;-68
2023/06/10 12:25:51;;;;;;;4.82;2.70;;;;;;;;;;5109074;27;20043;-68
2023/06/10 12:28:20;;;;;;;6.13;2.47;;;;;;;;;;5111556;28;20087;-68
2023/06/10 12:30:47;;;;;;;4.32;2.80;;;;;;;;;;5081428;28;20063;-68
2023/06/10 12:33:19;;;;;;;4.40;2.97;;;;;;;;;;5101103;28;21371;-68
2023/06/10 12:35:50;;;;;;;5.25;2.88;;;;;;;;;;5103881;28;20495;-68
2023/06/10 12:38:24;;;;;;;5.47;3.03;;;;;;;;;;5103710;28;20056;-68
2023/06/10 12:40:51;;;;;;;5.68;3.33;;;;;;;;;;5108884;28;20123;-68
2023/06/10 12:43:21;;;;;;;4.93;2.88;;;;;;;;;;5105204;28;20051;-68
2023/06/10 12:45:48;;;;;;;4.93;2.85;;;;;;;;;;5108902;28;20083;-68
2023/06/10 12:48:21;;;;;;;5.78;3.08;;;;;;;;;;5115779;27;20051;-68
2023/06/10 12:50:52;;;;;;;5.50;3.00;;;;;;;;;;5097070;28;20079;-68
2023/06/10 12:53:20;;;;;;;5.72;3.10;;;;;;;;;;5109535;28;20051;-73
2023/06/10 12:55:47;;;;;;;6.45;3.22;;;;;;;;;;5107279;28;20130;-73
2023/06/10 12:58:15;;;;;;;6.32;3.05;;;;;;;;;;5108993;27;20052;-73
2023/06/10 13:00:42;;;;;;;5.05;2.90;;;;;;;;;;5108989;28;20132;-73
2023/06/10 13:03:10;;;;;;;3.58;2.83;;;;;;;;;;5083410;28;20066;-73
2023/06/10 13:05:39;;;;;;;5.20;3.15;;;;;;;;;;5098311;28;20054;-73
2023/06/10 13:08:07;;;;;;;4.63;2.95;;;;;;;;;;5106350;28;20383;-73
2023/06/10 13:10:34;;;;;;;4.18;3.20;;;;;;;;;;5108317;28;20048;-74
2023/06/10 13:13:02;;;;;;;4.35;3.08;;;;;;;;;;5108347;28;20549;-73
2023/06/10 13:15:29;;;;;;;5.22;3.33;;;;;;;;;;5099581;28;20040;-73
2023/06/10 13:17:56;;;;;;;5.40;2.95;;;;;;;;;;5109700;28;20123;-73
2023/06/10 13:20:24;;;;;;;3.85;2.83;;;;;;;;;;5109811;28;20089;-73
2023/06/10 13:22:52;;;;;;;6.35;3.10;;;;;;;;;;5110007;28;20537;-73
2023/06/10 13:25:19;;;;;;;6.50;2.88;;;;;;;;;;5100552;28;20513;-73
2023/06/10 13:27:47;;;;;;;4.18;2.90;;;;;;;;;;5107042;28;20055;-73
2023/06/10 13:30:14;;;;;;;5.47;3.03;;;;;;;;;;5107791;28;20048;-73
2023/06/10 13:32:41;;;;;;;4.03;2.78;;;;;;;;;;5109345;28;20048;-73
2023/06/10 13:35:09;;;;;;;5.07;2.88;;;;;;;;;;5108451;28;20047;-73
2023/06/10 13:37:36;;;;;;;4.75;2.92;;;;;;;;;;5110415;28;20065;-73
2023/06/10 13:40:07;;;;;;;5.35;2.92;;;;;;;;;;5108010;28;20139;-73
2023/06/10 13:42:35;;;;;;;3.58;2.65;;;;;;;;;;5109016;28;20048;-74
2023/06/10 13:45:03;;;;;;;5.68;2.88;;;;;;;;;;5088124;28;20050;-74
2023/06/10 13:47:31;;;;;;;7.30;3.28;;;;;;;;;;5105735;28;20039;-74
2023/06/10 13:49:58;;;;;;;6.50;3.13;;;;;;;;;;5107568;28;20103;-73
2023/06/10 13:52:25;;;;;;;4.07;3.13;;;;;;;;;;5108514;28;20066;-74
2023/06/10 13:54:52;;;;;;;4.40;2.90;;;;;;;;;;5105782;28;20044;-74
2023/06/10 13:57:21;;;;;;;4.07;2.60;;;;;;;;;;5108140;28;20062;-74
2023/06/10 13:59:49;;;;;;;4.30;2.90;;;;;;;;;;5089116;28;20112;-73
2023/06/10 14:02:16;;;;;;;4.35;2.80;;;;;;;;;;5104635;28;20451;-74
2023/06/10 14:04:43;;;;;;;5.90;3.15;;;;;;;;;;5105594;28;20048;-74
2023/06/10 14:07:11;;;;;;;4.78;3.28;;;;;;;;;;5094997;28;20054;-74
2023/06/10 14:09:38;;;;;;;6.13;2.78;;;;;;;;;;5096455;28;20048;-74
2023/06/10 14:12:06;;;;;;;4.95;2.58;;;;;;;;;;5099733;28;20052;-74
2023/06/10 14:14:36;;;;;;;7.10;3.22;;;;;;;;;;5106188;28;20043;-74
2023/06/10 14:17:04;;;;;;;4.35;3.13;;;;;;;;;;5106322;28;20093;-74
2023/06/10 14:19:32;;;;;;;6.95;2.90;;;;;;;;;;5075271;28;20056;-74
2023/06/10 14:21:59;;;;;;;4.00;2.95;;;;;;;;;;5103256;28;20047;-74
2023/06/10 14:24:26;;;;;;;4.82;3.10;;;;;;;;;;5103592;28;20349;-73
2023/06/10 14:26:53;;;;;;;4.75;3.30;;;;;;;;;;5107839;28;20052;-74
2023/06/10 14:29:20;;;;;;;8.30;3.28;;;;;;;;;;5108441;28;20048;-74
2023/06/10 14:31:49;;;;;;;5.10;3.20;;;;;;;;;;5101070;28;20044;-74
2023/06/10 14:34:16;;;;;;;5.35;3.10;;;;;;;;;;5103498;28;20109;-74
2023/06/10 14:36:43;;;;;;;5.20;3.17;;;;;;;;;;5102447;28;20055;-74
2023/06/10 14:39:11;;;;;;;6.18;3.40;;;;;;;;;;5109090;28;20143;-74
2023/06/10 14:41:38;;;;;;;3.95;2.90;;;;;;;;;;5108482;28;20070;-74
2023/06/10 14:44:05;;;;;;;5.35;3.22;;;;;;;;;;5108565;28;20043;-74
2023/06/10 14:46:33;;;;;;;3.90;3.08;;;;;;;;;;5102149;28;20039;-74
2023/06/10 14:49:02;;;;;;;6.38;3.40;;;;;;;;;;5099190;28;20410;-74